Time;durP1;ratioP1;P1;durP2;ratioP2;P2;SDS_P1;SDS_P2;PMS_P1;PMS_P2;Temp;Humidity;BMP_temperature;BMP_pressure;BME280_temperature;BME280_humidity;BME280_pressure;Samples;Min_cycle;Max_cycle;Signal;HPM_P1;HPM_P2
2022/12/20 00:00:48;;;;;;;4.55;3.30;;;;;;;;;;5134546;27;20043;-57
2022/12/20 00:03:14;;;;;;;3.50;3.20;;;;;;;;;;5135193;27;20042;-57
2022/12/20 00:05:41;;;;;;;4.35;3.85;;;;;;;;;;5137075;27;20046;-57
2022/12/20 00:08:08;;;;;;;4.00;3.22;;;;;;;;;;5137495;27;20085;-57
2022/12/20 00:10:37;;;;;;;5.30;3.15;;;;;;;;;;5134841;27;20055;-57
2022/12/20 00:13:04;;;;;;;3.75;3.17;;;;;;;;;;5132565;27;20045;-57
2022/12/20 00:15:30;;;;;;;5.15;3.10;;;;;;;;;;5136427;27;20050;-57
2022/12/20 00:17:57;;;;;;;4.32;3.33;;;;;;;;;;5137502;27;20654;-57
2022/12/20 00:20:23;;;;;;;3.40;3.13;;;;;;;;;;5133038;27;20054;-57
2022/12/20 00:22:49;;;;;;;6.45;3.00;;;;;;;;;;5136120;27;20046;-57
2022/12/20 00:25:15;;;;;;;4.05;3.42;;;;;;;;;;5137625;27;20043;-57
2022/12/20 00:27:41;;;;;;;4.57;3.50;;;;;;;;;;5134443;27;20421;-57
2022/12/20 00:30:07;;;;;;;5.97;3.10;;;;;;;;;;5134101;27;20043;-57
2022/12/20 00:32:33;;;;;;;3.25;2.90;;;;;;;;;;5129216;27;20085;-57
2022/12/20 00:34:59;;;;;;;5.07;2.95;;;;;;;;;;5138692;27;20572;-57
2022/12/20 00:37:25;;;;;;;3.97;2.72;;;;;;;;;;5131721;27;20598;-57
2022/12/20 00:39:51;;;;;;;4.97;3.60;;;;;;;;;;5143491;27;20126;-57
2022/12/20 00:42:17;;;;;;;3.15;2.85;;;;;;;;;;5141432;27;20126;-56
2022/12/20 00:44:43;;;;;;;3.72;2.83;;;;;;;;;;5138679;27;20056;-57
2022/12/20 00:47:09;;;;;;;5.93;3.13;;;;;;;;;;5136230;27;20123;-57
2022/12/20 00:49:35;;;;;;;3.67;3.25;;;;;;;;;;5136687;27;20130;-57
2022/12/20 00:52:01;;;;;;;5.30;2.78;;;;;;;;;;5141035;27;20039;-57
2022/12/20 00:54:27;;;;;;;3.65;3.13;;;;;;;;;;5140795;27;20063;-58
2022/12/20 00:56:53;;;;;;;3.97;2.63;;;;;;;;;;5140004;27;20042;-57
2022/12/20 00:59:20;;;;;;;4.03;3.08;;;;;;;;;;5140696;27;20545;-57
2022/12/20 01:01:46;;;;;;;5.32;3.38;;;;;;;;;;5137644;27;20035;-57
2022/12/20 01:04:12;;;;;;;3.25;2.85;;;;;;;;;;5137252;27;20050;-57
2022/12/20 01:06:39;;;;;;;4.22;3.20;;;;;;;;;;5138303;27;20167;-57
2022/12/20 01:09:05;;;;;;;3.50;2.65;;;;;;;;;;5140095;27;20047;-57
2022/12/20 01:11:32;;;;;;;2.97;2.40;;;;;;;;;;5138291;27;20570;-58
2022/12/20 01:14:00;;;;;;;4.20;3.15;;;;;;;;;;5139765;27;20050;-57
2022/12/20 01:16:29;;;;;;;3.20;2.90;;;;;;;;;;5139661;27;20042;-57
2022/12/20 01:18:55;;;;;;;4.35;3.40;;;;;;;;;;5140873;27;20454;-57
2022/12/20 01:21:22;;;;;;;5.10;3.10;;;;;;;;;;5136357;27;20104;-57
2022/12/20 01:23:48;;;;;;;3.20;3.00;;;;;;;;;;5137143;27;20054;-58
2022/12/20 01:26:16;;;;;;;3.22;2.70;;;;;;;;;;5132273;27;20047;-57
2022/12/20 01:28:43;;;;;;;2.95;2.67;;;;;;;;;;5131669;27;20045;-57
2022/12/20 01:31:10;;;;;;;3.17;2.88;;;;;;;;;;5134341;27;20039;-57
2022/12/20 01:33:37;;;;;;;3.65;3.08;;;;;;;;;;5135836;27;20035;-57
2022/12/20 01:36:05;;;;;;;2.92;2.63;;;;;;;;;;5139778;27;20043;-57
2022/12/20 01:38:31;;;;;;;5.72;2.92;;;;;;;;;;5138135;27;20053;-57
2022/12/20 01:40:57;;;;;;;3.95;3.00;;;;;;;;;;5135304;27;20043;-56
2022/12/20 01:43:24;;;;;;;7.97;2.80;;;;;;;;;;5137418;27;20079;-57
2022/12/20 01:45:50;;;;;;;2.97;2.28;;;;;;;;;;5144053;27;20539;-57
2022/12/20 01:48:18;;;;;;;3.80;3.05;;;;;;;;;;5136833;27;20032;-57
2022/12/20 01:50:45;;;;;;;4.07;2.88;;;;;;;;;;5137888;27;20046;-58
2022/12/20 01:53:11;;;;;;;5.10;2.80;;;;;;;;;;5139973;27;20062;-56
2022/12/20 01:55:37;;;;;;;4.90;2.90;;;;;;;;;;5138835;27;20043;-57
2022/12/20 01:58:08;;;;;;;2.95;2.75;;;;;;;;;;5135604;27;20053;-57
2022/12/20 02:00:36;;;;;;;3.67;2.58;;;;;;;;;;5136527;27;20039;-57
2022/12/20 02:03:04;;;;;;;3.60;3.30;;;;;;;;;;5140271;27;20042;-57
2022/12/20 02:05:34;;;;;;;3.15;2.85;;;;;;;;;;5135517;27;20442;-57
2022/12/20 02:08:00;;;;;;;3.78;2.55;;;;;;;;;;5136444;27;20051;-57
2022/12/20 02:10:29;;;;;;;2.90;2.40;;;;;;;;;;5135722;27;20108;-57
2022/12/20 02:13:01;;;;;;;4.03;2.60;;;;;;;;;;5134764;27;20039;-57
2022/12/20 02:15:35;;;;;;;3.17;2.60;;;;;;;;;;5135385;27;20050;-57
2022/12/20 02:18:20;;;;;;;4.90;3.10;;;;;;;;;;5139367;27;20062;-56
2022/12/20 02:21:04;;;;;;;2.92;2.40;;;;;;;;;;5138268;27;20129;-57
2022/12/20 02:23:49;;;;;;;3.20;2.53;;;;;;;;;;5139171;27;20068;-56
2022/12/20 02:26:18;;;;;;;3.50;3.08;;;;;;;;;;5137027;27;20046;-57
2022/12/20 02:28:50;;;;;;;5.00;2.65;;;;;;;;;;5137281;27;20439;-56
2022/12/20 02:31:18;;;;;;;3.15;2.90;;;;;;;;;;5137652;27;20065;-57
2022/12/20 02:33:49;;;;;;;3.25;2.67;;;;;;;;;;5136298;27;20074;-57
2022/12/20 02:36:18;;;;;;;3.10;2.50;;;;;;;;;;5135663;27;20556;-57
2022/12/20 02:38:44;;;;;;;2.72;2.47;;;;;;;;;;5136834;27;20054;-57
2022/12/20 02:41:17;;;;;;;3.40;3.05;;;;;;;;;;5137868;27;20498;-57
2022/12/20 02:46:30;;;;;;;3.58;2.53;;;;;;;;;;5135381;27;20055;-57
2022/12/20 02:49:00;;;;;;;4.60;2.60;;;;;;;;;;5134559;27;20642;-57
2022/12/20 02:51:27;;;;;;;4.55;3.05;;;;;;;;;;5134887;27;20039;-57
2022/12/20 02:53:53;;;;;;;3.70;2.88;;;;;;;;;;5137644;27;20038;-57
2022/12/20 02:56:22;;;;;;;5.43;2.22;;;;;;;;;;5131569;27;20090;-57
2022/12/20 02:58:51;;;;;;;3.25;2.58;;;;;;;;;;5136458;27;20043;-58
2022/12/20 03:01:20;;;;;;;4.55;3.00;;;;;;;;;;5137770;27;20744;-58
2022/12/20 03:03:46;;;;;;;3.90;2.72;;;;;;;;;;5129339;27;20043;-57
2022/12/20 03:06:12;;;;;;;3.55;2.60;;;;;;;;;;5138240;27;20045;-58
2022/12/20 03:08:38;;;;;;;4.03;3.08;;;;;;;;;;5136670;27;20074;-58
2022/12/20 03:11:04;;;;;;;3.55;2.42;;;;;;;;;;5133392;27;20470;-57
2022/12/20 03:13:30;;;;;;;3.85;2.50;;;;;;;;;;5134899;27;20050;-57
2022/12/20 03:15:56;;;;;;;4.38;2.75;;;;;;;;;;5140900;27;20128;-58
2022/12/20 03:18:22;;;;;;;3.80;2.60;;;;;;;;;;5138524;27;20398;-57
2022/12/20 03:20:48;;;;;;;3.92;2.90;;;;;;;;;;5135655;27;20035;-57
2022/12/20 03:23:14;;;;;;;4.75;3.15;;;;;;;;;;5134496;27;20069;-57
2022/12/20 03:25:40;;;;;;;4.22;2.92;;;;;;;;;;5142333;27;20045;-58
2022/12/20 03:28:06;;;;;;;2.78;2.58;;;;;;;;;;5134648;27;20035;-57
2022/12/20 03:30:32;;;;;;;4.38;2.80;;;;;;;;;;5133994;27;20429;-58
2022/12/20 03:32:58;;;;;;;3.75;2.70;;;;;;;;;;5134533;27;20053;-57
2022/12/20 03:35:24;;;;;;;3.50;2.70;;;;;;;;;;5134320;27;20039;-57
2022/12/20 03:37:50;;;;;;;3.10;2.50;;;;;;;;;;5135389;27;20486;-57
2022/12/20 03:40:16;;;;;;;3.17;2.42;;;;;;;;;;5139415;27;20077;-57
2022/12/20 03:42:42;;;;;;;4.15;3.00;;;;;;;;;;5135421;27;20615;-57
2022/12/20 03:45:09;;;;;;;3.17;2.65;;;;;;;;;;5137957;27;20039;-57
2022/12/20 03:47:35;;;;;;;4.03;2.40;;;;;;;;;;5138035;27;20438;-57
2022/12/20 03:50:01;;;;;;;3.50;2.70;;;;;;;;;;5134309;27;20113;-57
2022/12/20 03:52:27;;;;;;;3.83;2.33;;;;;;;;;;5133575;27;20071;-57
2022/12/20 03:54:53;;;;;;;3.72;2.20;;;;;;;;;;5135794;27;20414;-57
2022/12/20 03:57:19;;;;;;;5.10;2.70;;;;;;;;;;5137504;27;20046;-59
2022/12/20 03:59:45;;;;;;;3.17;2.88;;;;;;;;;;5135765;27;20130;-57
2022/12/20 04:02:11;;;;;;;3.95;2.67;;;;;;;;;;5138578;27;20039;-57
2022/12/20 04:04:37;;;;;;;2.67;2.47;;;;;;;;;;5136750;27;20142;-57
2022/12/20 04:07:03;;;;;;;2.92;2.55;;;;;;;;;;5134112;27;20134;-58
2022/12/20 04:09:29;;;;;;;6.57;3.17;;;;;;;;;;5133873;27;20047;-57
2022/12/20 04:11:55;;;;;;;2.78;2.58;;;;;;;;;;5135330;27;20051;-57
2022/12/20 04:14:21;;;;;;;5.10;2.75;;;;;;;;;;5135424;27;20035;-57
2022/12/20 04:16:47;;;;;;;3.08;2.58;;;;;;;;;;5138616;27;20079;-57
2022/12/20 04:19:13;;;;;;;3.50;2.13;;;;;;;;;;5140839;27;20366;-57
2022/12/20 04:21:39;;;;;;;2.40;2.20;;;;;;;;;;5141400;27;20062;-57
2022/12/20 04:24:05;;;;;;;2.58;2.38;;;;;;;;;;5138302;27;20070;-57
2022/12/20 04:26:31;;;;;;;4.72;2.63;;;;;;;;;;5137432;27;20043;-57
2022/12/20 04:28:57;;;;;;;4.85;3.10;;;;;;;;;;5140678;27;20043;-57
2022/12/20 04:31:24;;;;;;;3.05;2.63;;;;;;;;;;5141394;27;20047;-57
2022/12/20 04:33:50;;;;;;;3.08;2.78;;;;;;;;;;5138447;27;20043;-57
2022/12/20 04:36:16;;;;;;;3.05;2.83;;;;;;;;;;5142917;27;20175;-57
2022/12/20 04:38:42;;;;;;;3.83;3.00;;;;;;;;;;5140556;27;20138;-57
2022/12/20 04:41:08;;;;;;;2.60;2.40;;;;;;;;;;5139308;27;20034;-57
2022/12/20 04:43:34;;;;;;;3.25;2.70;;;;;;;;;;5141575;27;20065;-57
2022/12/20 04:46:00;;;;;;;3.60;3.28;;;;;;;;;;5139809;27;20635;-57
2022/12/20 04:48:27;;;;;;;3.28;2.80;;;;;;;;;;5122077;27;20050;-57
2022/12/20 04:50:54;;;;;;;3.72;2.78;;;;;;;;;;5136744;27;20058;-57
2022/12/20 04:56:05;;;;;;;2.95;2.65;;;;;;;;;;5144288;27;20042;-57
2022/12/20 04:58:31;;;;;;;4.85;3.67;;;;;;;;;;5139163;27;20074;-57
2022/12/20 05:00:57;;;;;;;3.40;2.97;;;;;;;;;;5138159;27;20046;-58
2022/12/20 05:03:24;;;;;;;3.50;3.20;;;;;;;;;;5139587;27;20039;-57
2022/12/20 05:05:50;;;;;;;4.85;2.92;;;;;;;;;;5137811;27;20103;-57
2022/12/20 05:08:17;;;;;;;4.32;3.05;;;;;;;;;;5137421;27;20451;-58
2022/12/20 05:10:43;;;;;;;4.88;3.30;;;;;;;;;;5135880;27;20457;-57
2022/12/20 05:13:09;;;;;;;3.20;2.90;;;;;;;;;;5137675;27;20073;-58
2022/12/20 05:15:35;;;;;;;4.43;3.22;;;;;;;;;;5134855;27;20050;-57
2022/12/20 05:18:01;;;;;;;3.25;2.88;;;;;;;;;;5146891;27;20501;-57
2022/12/20 05:20:28;;;;;;;7.18;3.53;;;;;;;;;;5141025;27;20127;-57
2022/12/20 05:26:16;;;;;;;2.55;2.22;;;;;;;;;;5138790;27;20039;-57
2022/12/20 05:28:34;;;;;;;5.15;3.15;;;;;;;;;;5119367;27;20043;-57
2022/12/20 05:31:00;;;;;;;6.25;3.28;;;;;;;;;;5135870;27;20047;-57
2022/12/20 05:33:26;;;;;;;3.72;3.38;;;;;;;;;;5135991;27;20051;-57
2022/12/20 05:35:52;;;;;;;4.55;3.53;;;;;;;;;;5136240;27;20047;-57
2022/12/20 05:38:19;;;;;;;5.07;3.53;;;;;;;;;;5136210;27;20043;-57
2022/12/20 05:40:47;;;;;;;3.95;2.75;;;;;;;;;;5135365;27;20038;-57
2022/12/20 05:43:13;;;;;;;3.10;2.80;;;;;;;;;;5135062;27;20370;-57
2022/12/20 05:45:39;;;;;;;5.07;3.35;;;;;;;;;;5136752;27;20496;-57
2022/12/20 05:48:05;;;;;;;3.38;3.08;;;;;;;;;;5139520;27;20035;-57
2022/12/20 05:50:31;;;;;;;3.35;2.80;;;;;;;;;;5132727;27;20530;-57
2022/12/20 05:52:57;;;;;;;2.65;2.45;;;;;;;;;;5134072;27;20042;-58
2022/12/20 05:55:23;;;;;;;3.30;2.67;;;;;;;;;;5132482;27;20568;-57
2022/12/20 05:57:49;;;;;;;3.28;2.85;;;;;;;;;;5134868;27;20083;-57
2022/12/20 06:00:15;;;;;;;2.65;2.42;;;;;;;;;;5134651;27;20149;-56
2022/12/20 06:02:41;;;;;;;3.40;2.63;;;;;;;;;;5135919;27;20543;-57
2022/12/20 06:05:08;;;;;;;3.35;3.00;;;;;;;;;;5135191;27;20039;-57
2022/12/20 06:07:34;;;;;;;2.47;2.20;;;;;;;;;;5099282;27;1052830;-57
2022/12/20 06:10:00;;;;;;;4.00;2.53;;;;;;;;;;5140481;27;21578;-57
2022/12/20 06:12:26;;;;;;;2.83;2.63;;;;;;;;;;5136384;27;20077;-57
2022/12/20 06:14:52;;;;;;;3.13;2.50;;;;;;;;;;5117454;27;20047;-57
2022/12/20 06:17:20;;;;;;;3.10;2.47;;;;;;;;;;5142223;27;20050;-57
2022/12/20 06:19:46;;;;;;;3.08;2.50;;;;;;;;;;5139018;27;20043;-57
2022/12/20 06:22:12;;;;;;;3.15;2.50;;;;;;;;;;5139286;27;20050;-57
2022/12/20 06:24:38;;;;;;;6.32;2.90;;;;;;;;;;5138461;27;20638;-57
2022/12/20 06:27:06;;;;;;;4.05;2.85;;;;;;;;;;5138314;27;20083;-57
2022/12/20 06:29:32;;;;;;;3.13;2.83;;;;;;;;;;5137736;27;20058;-57
2022/12/20 06:31:58;;;;;;;2.70;2.47;;;;;;;;;;5136481;27;20042;-57
2022/12/20 06:34:24;;;;;;;3.55;2.97;;;;;;;;;;5136722;27;20089;-57
2022/12/20 06:36:50;;;;;;;2.90;2.58;;;;;;;;;;5137725;27;20077;-57
2022/12/20 06:39:16;;;;;;;2.63;2.30;;;;;;;;;;5133614;27;20070;-57
2022/12/20 06:41:46;;;;;;;3.33;2.53;;;;;;;;;;5133658;27;20089;-57
2022/12/20 06:44:12;;;;;;;2.55;2.25;;;;;;;;;;5138460;27;20516;-57
2022/12/20 06:46:38;;;;;;;5.88;3.13;;;;;;;;;;5136111;27;20043;-57
2022/12/20 06:49:04;;;;;;;2.65;2.45;;;;;;;;;;5131422;27;20074;-57
2022/12/20 06:51:30;;;;;;;2.92;2.70;;;;;;;;;;5135267;27;20039;-57
2022/12/20 06:53:56;;;;;;;4.35;2.67;;;;;;;;;;5131025;27;20387;-57
2022/12/20 06:56:22;;;;;;;3.70;2.70;;;;;;;;;;5136861;27;20043;-57
2022/12/20 06:58:48;;;;;;;4.00;2.25;;;;;;;;;;5135746;27;20087;-57
2022/12/20 07:01:14;;;;;;;2.83;2.55;;;;;;;;;;5130095;27;20151;-57
2022/12/20 07:03:40;;;;;;;2.97;2.60;;;;;;;;;;5131563;27;20050;-57
2022/12/20 07:06:06;;;;;;;3.90;2.92;;;;;;;;;;5137891;27;20134;-57
2022/12/20 07:08:32;;;;;;;2.50;2.30;;;;;;;;;;5138706;27;20050;-57
2022/12/20 07:11:06;;;;;;;4.00;3.10;;;;;;;;;;5133780;27;20130;-57
2022/12/20 07:13:32;;;;;;;3.97;3.58;;;;;;;;;;5137403;27;20058;-58
2022/12/20 07:15:59;;;;;;;2.85;2.65;;;;;;;;;;5134669;27;20035;-58
2022/12/20 07:18:25;;;;;;;5.10;3.22;;;;;;;;;;5136849;27;20104;-58
2022/12/20 07:20:51;;;;;;;4.53;3.33;;;;;;;;;;5135138;27;20043;-57
2022/12/20 07:23:17;;;;;;;4.22;3.20;;;;;;;;;;5136114;27;20045;-58
2022/12/20 07:25:43;;;;;;;2.72;2.53;;;;;;;;;;5138552;27;20042;-58
2022/12/20 07:28:09;;;;;;;5.20;3.45;;;;;;;;;;5142379;27;20114;-58
2022/12/20 07:30:36;;;;;;;3.70;3.40;;;;;;;;;;5137409;27;20086;-57
2022/12/20 07:33:03;;;;;;;3.17;2.92;;;;;;;;;;5132377;27;20173;-58
2022/12/20 07:35:29;;;;;;;3.92;3.40;;;;;;;;;;5133436;27;20047;-57
2022/12/20 07:37:55;;;;;;;3.60;3.30;;;;;;;;;;5137753;27;20233;-57
2022/12/20 07:40:21;;;;;;;4.03;3.63;;;;;;;;;;5136181;27;20038;-57
2022/12/20 07:42:47;;;;;;;3.88;3.58;;;;;;;;;;5133733;27;20054;-58
2022/12/20 07:45:14;;;;;;;4.30;3.90;;;;;;;;;;5136825;27;20091;-57
2022/12/20 07:47:40;;;;;;;4.43;3.95;;;;;;;;;;5130036;27;20047;-57
2022/12/20 07:50:06;;;;;;;4.32;3.92;;;;;;;;;;5136535;27;20165;-57
2022/12/20 07:52:34;;;;;;;4.32;3.67;;;;;;;;;;5136207;27;20503;-57
2022/12/20 07:55:02;;;;;;;5.25;3.50;;;;;;;;;;5135952;27;20073;-57
2022/12/20 07:57:34;;;;;;;4.88;4.05;;;;;;;;;;5130187;27;20050;-57
2022/12/20 08:00:01;;;;;;;6.45;3.95;;;;;;;;;;5131786;27;20138;-57
2022/12/20 08:02:32;;;;;;;4.80;3.50;;;;;;;;;;5135217;27;20039;-57
2022/12/20 08:04:58;;;;;;;3.80;3.50;;;;;;;;;;5134023;27;20493;-57
2022/12/20 08:07:24;;;;;;;4.60;3.78;;;;;;;;;;5136084;27;20485;-57
2022/12/20 08:09:50;;;;;;;5.70;3.80;;;;;;;;;;5133693;27;20047;-57
2022/12/20 08:12:18;;;;;;;4.57;3.90;;;;;;;;;;5132777;27;20465;-57
2022/12/20 08:14:44;;;;;;;4.80;4.40;;;;;;;;;;5135966;27;20146;-57
2022/12/20 08:17:10;;;;;;;4.22;3.90;;;;;;;;;;5132226;27;20047;-57
2022/12/20 08:19:37;;;;;;;4.80;4.30;;;;;;;;;;5128852;27;20092;-58
2022/12/20 08:22:04;;;;;;;4.68;3.90;;;;;;;;;;5133081;27;20047;-57
2022/12/20 08:24:30;;;;;;;4.63;4.18;;;;;;;;;;5131125;27;20564;-57
2022/12/20 08:26:56;;;;;;;4.75;4.40;;;;;;;;;;5136553;27;20089;-57
2022/12/20 08:29:22;;;;;;;5.18;4.68;;;;;;;;;;5135459;27;20404;-57
2022/12/20 08:31:48;;;;;;;4.18;3.78;;;;;;;;;;5131193;27;20079;-57
2022/12/20 08:34:14;;;;;;;4.00;3.65;;;;;;;;;;5129086;27;20082;-57
2022/12/20 08:36:40;;;;;;;4.43;4.03;;;;;;;;;;5130973;27;20437;-57
2022/12/20 08:39:07;;;;;;;4.88;3.95;;;;;;;;;;5132889;27;20043;-57
2022/12/20 08:41:36;;;;;;;4.65;3.72;;;;;;;;;;5133540;27;20039;-57
2022/12/20 08:44:02;;;;;;;4.32;3.92;;;;;;;;;;5128457;27;20054;-57
2022/12/20 08:46:28;;;;;;;4.13;3.72;;;;;;;;;;5136252;27;20039;-57
2022/12/20 08:48:54;;;;;;;7.25;3.83;;;;;;;;;;5133963;27;20050;-56
2022/12/20 08:51:20;;;;;;;4.28;3.63;;;;;;;;;;5131808;27;20047;-57
2022/12/20 08:53:46;;;;;;;3.83;3.47;;;;;;;;;;5131189;27;20042;-57
2022/12/20 08:56:17;;;;;;;3.58;3.28;;;;;;;;;;5130949;27;20074;-57
2022/12/20 08:58:43;;;;;;;3.63;3.33;;;;;;;;;;5129304;27;20497;-57
2022/12/20 09:01:11;;;;;;;3.08;2.88;;;;;;;;;;5127794;27;20367;-54
2022/12/20 09:03:38;;;;;;;4.80;3.35;;;;;;;;;;5129566;27;20491;-50
2022/12/20 09:06:14;;;;;;;3.40;3.10;;;;;;;;;;5129602;27;20072;-56
2022/12/20 09:08:40;;;;;;;2.97;2.65;;;;;;;;;;5133304;27;20047;-56
2022/12/20 09:11:18;;;;;;;2.70;2.10;;;;;;;;;;5135199;27;20539;-57
2022/12/20 09:13:45;;;;;;;3.33;2.67;;;;;;;;;;5134826;27;20047;-56
2022/12/20 09:16:12;;;;;;;2.65;2.42;;;;;;;;;;5136167;27;20035;-56
2022/12/20 09:18:38;;;;;;;3.33;2.33;;;;;;;;;;5134830;27;20100;-58
2022/12/20 09:21:05;;;;;;;3.35;3.03;;;;;;;;;;5130171;27;20045;-58
2022/12/20 09:23:32;;;;;;;4.43;2.28;;;;;;;;;;5130718;27;20043;-58
2022/12/20 09:26:02;;;;;;;3.10;2.50;;;;;;;;;;5131215;27;20039;-58
2022/12/20 09:28:29;;;;;;;4.22;2.13;;;;;;;;;;5133673;27;20450;-58
2022/12/20 09:30:59;;;;;;;3.03;2.30;;;;;;;;;;5133457;27;20040;-58
2022/12/20 09:33:25;;;;;;;2.25;2.15;;;;;;;;;;5138291;27;20050;-57
2022/12/20 09:35:51;;;;;;;5.13;2.85;;;;;;;;;;5132544;27;20121;-58
2022/12/20 09:38:17;;;;;;;3.00;2.50;;;;;;;;;;5135933;27;20031;-58
2022/12/20 09:40:51;;;;;;;3.83;2.50;;;;;;;;;;5131565;27;20040;-57
2022/12/20 09:43:18;;;;;;;3.20;2.00;;;;;;;;;;5135237;27;20035;-58
2022/12/20 09:45:47;;;;;;;3.72;2.63;;;;;;;;;;5132628;27;20126;-55
2022/12/20 09:48:21;;;;;;;2.38;2.17;;;;;;;;;;5138313;27;20181;-56
2022/12/20 09:51:13;;;;;;;3.25;2.45;;;;;;;;;;5134466;27;20050;-63
2022/12/20 09:53:54;;;;;;;4.03;2.67;;;;;;;;;;5131169;27;20459;-58
2022/12/20 09:56:29;;;;;;;5.95;2.78;;;;;;;;;;5127881;27;20046;-56
2022/12/20 09:59:01;;;;;;;2.58;2.08;;;;;;;;;;5132971;27;20047;-53
2022/12/20 10:01:28;;;;;;;3.13;2.67;;;;;;;;;;5127523;27;20092;-51
2022/12/20 10:03:55;;;;;;;2.92;2.22;;;;;;;;;;5131642;27;20039;-53
2022/12/20 10:06:21;;;;;;;3.58;2.28;;;;;;;;;;5135228;27;20043;-51
2022/12/20 10:08:47;;;;;;;3.65;2.47;;;;;;;;;;5117467;27;20061;-52
2022/12/20 10:11:24;;;;;;;2.58;2.33;;;;;;;;;;5133416;27;20028;-52
2022/12/20 10:14:02;;;;;;;3.88;2.55;;;;;;;;;;5129352;27;20436;-52
2022/12/20 10:16:47;;;;;;;2.78;2.40;;;;;;;;;;5132993;27;20042;-53
2022/12/20 10:19:13;;;;;;;3.50;2.20;;;;;;;;;;5128765;27;20042;-51
2022/12/20 10:21:55;;;;;;;3.28;2.63;;;;;;;;;;5133061;27;20042;-53
2022/12/20 10:24:27;;;;;;;4.38;2.15;;;;;;;;;;5135789;27;20121;-53
2022/12/20 10:26:53;;;;;;;2.75;2.55;;;;;;;;;;5135614;27;20041;-53
2022/12/20 10:29:22;;;;;;;4.63;2.25;;;;;;;;;;5135055;27;20511;-52
2022/12/20 10:31:54;;;;;;;4.72;2.33;;;;;;;;;;5141286;27;20191;-52
2022/12/20 10:34:20;;;;;;;2.42;1.98;;;;;;;;;;5137337;27;20054;-53
2022/12/20 10:36:49;;;;;;;5.28;2.60;;;;;;;;;;5135094;27;20043;-51
2022/12/20 10:39:15;;;;;;;3.10;2.17;;;;;;;;;;5143656;27;20085;-53
2022/12/20 10:41:43;;;;;;;4.40;2.25;;;;;;;;;;5148345;27;20042;-52
2022/12/20 10:44:23;;;;;;;5.05;2.17;;;;;;;;;;5148325;27;20118;-51
2022/12/20 10:46:56;;;;;;;1.92;1.80;;;;;;;;;;5147405;27;20050;-53
2022/12/20 10:49:32;;;;;;;2.95;2.08;;;;;;;;;;5148226;27;20393;-51
2022/12/20 10:51:59;;;;;;;2.95;2.40;;;;;;;;;;5148500;27;20047;-52
2022/12/20 10:54:28;;;;;;;4.30;2.42;;;;;;;;;;5147904;27;20053;-52
2022/12/20 10:56:55;;;;;;;3.92;2.45;;;;;;;;;;5149391;27;20115;-52
2022/12/20 10:59:37;;;;;;;2.47;1.95;;;;;;;;;;5148021;27;20458;-53
2022/12/20 11:02:22;;;;;;;2.88;1.90;;;;;;;;;;5149039;27;20046;-53
2022/12/20 11:05:00;;;;;;;2.38;1.92;;;;;;;;;;5148624;27;20444;-52
2022/12/20 11:07:28;;;;;;;2.15;1.98;;;;;;;;;;5147872;27;20406;-53
2022/12/20 11:09:56;;;;;;;3.17;1.90;;;;;;;;;;5149010;27;20057;-54
2022/12/20 11:12:22;;;;;;;4.25;2.60;;;;;;;;;;5133604;27;20045;-54
2022/12/20 11:14:48;;;;;;;3.47;2.67;;;;;;;;;;5127513;27;20131;-53
2022/12/20 11:17:14;;;;;;;2.88;2.40;;;;;;;;;;5147177;27;20493;-54
2022/12/20 11:19:49;;;;;;;3.30;2.15;;;;;;;;;;5135255;27;20046;-53
2022/12/20 11:22:31;;;;;;;3.13;2.17;;;;;;;;;;5127332;27;20046;-54
2022/12/20 11:24:57;;;;;;;2.90;2.60;;;;;;;;;;5142260;27;20091;-53
2022/12/20 11:27:55;;;;;;;2.85;2.00;;;;;;;;;;5136382;27;20432;-53
2022/12/20 11:30:26;;;;;;;3.72;2.45;;;;;;;;;;5088206;27;20054;-54
2022/12/20 11:33:01;;;;;;;4.47;2.40;;;;;;;;;;5135573;27;20132;-53
2022/12/20 11:35:37;;;;;;;2.75;2.33;;;;;;;;;;5133743;27;20234;-53
2022/12/20 11:38:17;;;;;;;5.05;2.45;;;;;;;;;;5134464;27;20038;-52
2022/12/20 11:40:46;;;;;;;2.80;2.20;;;;;;;;;;5131253;27;20404;-52
2022/12/20 11:43:21;;;;;;;5.70;2.85;;;;;;;;;;5136402;27;20043;-51
2022/12/20 11:45:55;;;;;;;3.67;2.42;;;;;;;;;;5127204;27;20051;-53
2022/12/20 11:48:37;;;;;;;3.17;2.55;;;;;;;;;;5134366;27;20419;-53
2022/12/20 11:51:06;;;;;;;4.13;2.50;;;;;;;;;;5130791;27;20639;-53
2022/12/20 11:53:41;;;;;;;5.47;2.90;;;;;;;;;;5116416;27;20054;-53
2022/12/20 11:56:10;;;;;;;3.65;2.63;;;;;;;;;;5141183;27;20141;-53
2022/12/20 11:58:50;;;;;;;4.47;2.70;;;;;;;;;;5142841;27;20188;-53
2022/12/20 12:01:18;;;;;;;3.33;2.50;;;;;;;;;;5137566;27;20066;-53
2022/12/20 12:03:59;;;;;;;3.60;2.60;;;;;;;;;;5127530;27;20540;-53
2022/12/20 12:06:27;;;;;;;4.75;3.15;;;;;;;;;;5133973;27;20035;-54
2022/12/20 12:08:59;;;;;;;3.70;2.80;;;;;;;;;;5147670;27;20058;-60
2022/12/20 12:11:29;;;;;;;3.22;2.42;;;;;;;;;;5147445;27;20086;-58
2022/12/20 12:13:55;;;;;;;3.78;2.50;;;;;;;;;;5140725;27;20043;-58
2022/12/20 12:16:41;;;;;;;3.38;2.47;;;;;;;;;;5146778;27;20046;-58
2022/12/20 12:19:11;;;;;;;2.85;2.65;;;;;;;;;;5147238;27;20066;-58
2022/12/20 12:21:45;;;;;;;4.20;3.05;;;;;;;;;;5148389;27;20177;-58
2022/12/20 12:24:30;;;;;;;4.05;2.58;;;;;;;;;;5147125;27;20064;-58
2022/12/20 12:26:58;;;;;;;2.60;2.40;;;;;;;;;;5146630;27;20047;-58
2022/12/20 12:29:24;;;;;;;4.78;3.33;;;;;;;;;;5145569;27;20042;-58
2022/12/20 12:32:02;;;;;;;3.75;3.17;;;;;;;;;;5145405;27;20074;-58
2022/12/20 12:34:44;;;;;;;5.30;3.53;;;;;;;;;;5145803;27;20393;-58
2022/12/20 12:37:10;;;;;;;4.30;3.17;;;;;;;;;;5147964;27;20508;-58
2022/12/20 12:39:50;;;;;;;2.75;2.55;;;;;;;;;;5149415;27;20086;-58
2022/12/20 12:42:21;;;;;;;2.72;2.53;;;;;;;;;;5151238;27;20042;-58
2022/12/20 12:44:49;;;;;;;3.80;3.50;;;;;;;;;;5152002;27;20126;-58
2022/12/20 12:47:20;;;;;;;3.88;3.55;;;;;;;;;;5151541;27;20061;-58
2022/12/20 12:49:49;;;;;;;3.75;3.03;;;;;;;;;;5151910;27;20082;-58
2022/12/20 12:52:29;;;;;;;4.35;3.25;;;;;;;;;;5150700;27;20509;-58
2022/12/20 12:54:55;;;;;;;3.13;2.90;;;;;;;;;;5151659;27;20051;-58
2022/12/20 12:57:21;;;;;;;4.90;3.10;;;;;;;;;;5151238;27;20039;-58
2022/12/20 12:59:49;;;;;;;3.50;2.90;;;;;;;;;;5150766;27;20455;-59
2022/12/20 13:02:16;;;;;;;5.03;3.20;;;;;;;;;;5152013;27;20046;-58
2022/12/20 13:05:01;;;;;;;3.88;2.90;;;;;;;;;;5151149;27;20049;-58
2022/12/20 13:07:33;;;;;;;3.20;3.00;;;;;;;;;;5150216;27;20118;-57
2022/12/20 13:10:00;;;;;;;3.15;2.88;;;;;;;;;;5151490;27;20142;-58
2022/12/20 13:12:35;;;;;;;4.35;3.28;;;;;;;;;;5151022;27;20166;-58
2022/12/20 13:15:35;;;;;;;3.70;3.40;;;;;;;;;;5150496;27;20054;-58
2022/12/20 13:18:13;;;;;;;6.43;3.80;;;;;;;;;;5094420;27;20047;-58
2022/12/20 13:20:39;;;;;;;4.30;3.47;;;;;;;;;;5129189;27;20393;-58
2022/12/20 13:23:11;;;;;;;6.60;4.50;;;;;;;;;;5130741;27;20357;-58
2022/12/20 13:25:47;;;;;;;5.78;4.18;;;;;;;;;;5130026;27;20507;-58
2022/12/20 13:28:22;;;;;;;4.65;4.15;;;;;;;;;;5129789;27;20043;-58
2022/12/20 13:31:09;;;;;;;7.22;4.75;;;;;;;;;;5129606;27;20043;-58
2022/12/20 13:33:41;;;;;;;4.72;4.15;;;;;;;;;;5118928;27;20051;-57
2022/12/20 13:36:10;;;;;;;5.50;5.00;;;;;;;;;;5129253;27;20126;-58
2022/12/20 13:38:56;;;;;;;6.05;4.80;;;;;;;;;;5130144;27;20050;-58
2022/12/20 13:41:22;;;;;;;5.43;4.30;;;;;;;;;;5128778;27;20449;-58
2022/12/20 13:43:50;;;;;;;6.10;4.35;;;;;;;;;;5111410;27;20051;-58
2022/12/20 13:46:39;;;;;;;6.35;4.50;;;;;;;;;;5129857;27;20047;-58
2022/12/20 13:49:10;;;;;;;6.45;5.20;;;;;;;;;;5129034;27;20430;-58
2022/12/20 13:51:36;;;;;;;5.43;4.95;;;;;;;;;;5130301;27;20039;-58
2022/12/20 13:54:03;;;;;;;7.85;5.93;;;;;;;;;;5129557;27;20112;-58
2022/12/20 13:56:36;;;;;;;7.78;6.00;;;;;;;;;;5128793;27;20863;-58
2022/12/20 13:59:07;;;;;;;6.10;5.47;;;;;;;;;;5129466;27;20043;-57
2022/12/20 14:01:34;;;;;;;5.37;4.87;;;;;;;;;;5129331;27;20040;-58
2022/12/20 14:04:05;;;;;;;5.90;5.38;;;;;;;;;;5128608;27;20541;-58
2022/12/20 14:06:32;;;;;;;4.45;4.15;;;;;;;;;;5129331;27;20174;-58
2022/12/20 14:08:58;;;;;;;5.65;5.15;;;;;;;;;;5128985;27;20501;-58
2022/12/20 14:11:26;;;;;;;8.02;5.25;;;;;;;;;;5128227;27;20050;-58
2022/12/20 14:13:55;;;;;;;6.47;5.03;;;;;;;;;;5129336;27;20743;-58
2022/12/20 14:16:22;;;;;;;5.63;5.10;;;;;;;;;;5128392;27;20043;-58
2022/12/20 14:19:08;;;;;;;7.80;5.22;;;;;;;;;;5129109;27;20039;-58
2022/12/20 14:21:35;;;;;;;5.85;5.35;;;;;;;;;;5128961;27;20147;-58
2022/12/20 14:24:02;;;;;;;6.97;5.65;;;;;;;;;;5128191;27;20039;-58
2022/12/20 14:26:43;;;;;;;8.38;6.43;;;;;;;;;;5128933;27;20038;-58
2022/12/20 14:29:10;;;;;;;8.07;6.70;;;;;;;;;;5128758;27;20489;-58
2022/12/20 14:31:41;;;;;;;11.38;7.72;;;;;;;;;;5128827;27;20298;-58
2022/12/20 14:34:10;;;;;;;8.70;7.80;;;;;;;;;;5128980;27;20521;-58
2022/12/20 14:36:41;;;;;;;15.38;9.35;;;;;;;;;;5128987;27;20489;-58
2022/12/20 14:39:24;;;;;;;9.48;7.63;;;;;;;;;;5127953;27;20050;-58
2022/12/20 14:42:00;;;;;;;8.35;7.40;;;;;;;;;;5128806;27;20058;-58
2022/12/20 14:44:27;;;;;;;10.45;7.53;;;;;;;;;;5127697;27;20409;-58
2022/12/20 14:46:58;;;;;;;7.13;6.43;;;;;;;;;;5128258;27;20039;-58
2022/12/20 14:49:26;;;;;;;8.27;7.00;;;;;;;;;;5128467;27;20046;-58
2022/12/20 14:52:05;;;;;;;8.68;7.82;;;;;;;;;;5127800;27;20047;-58
2022/12/20 14:54:31;;;;;;;8.25;7.55;;;;;;;;;;5128776;27;20087;-58
2022/12/20 14:56:57;;;;;;;7.70;7.00;;;;;;;;;;5128389;27;20122;-58
2022/12/20 14:59:30;;;;;;;8.80;7.72;;;;;;;;;;5126249;27;20150;-58
2022/12/20 15:01:57;;;;;;;7.85;7.15;;;;;;;;;;5128514;27;20103;-57